sensor_id;sensor_type;location;lat;lon;timestamp;P1;durP1;ratioP1;P2;durP2;ratioP2
45114;SDS011;30877;43.706;10.780;2023-07-13T00:00:48;10.50;;;4.13;;
45114;SDS011;30877;43.706;10.780;2023-07-13T00:03:17;14.80;;;4.60;;
45114;SDS011;30877;43.706;10.780;2023-07-13T00:05:45;10.70;;;3.63;;
45114;SDS011;30877;43.706;10.780;2023-07-13T00:08:15;12.57;;;3.90;;
45114;SDS011;30877;43.706;10.780;2023-07-13T00:10:43;12.25;;;3.97;;
45114;SDS011;30877;43.706;10.780;2023-07-13T00:13:12;10.02;;;4.10;;
45114;SDS011;30877;43.706;10.780;2023-07-13T00:15:40;15.00;;;4.25;;
45114;SDS011;30877;43.706;10.780;2023-07-13T00:18:09;13.07;;;4.70;;
45114;SDS011;30877;43.706;10.780;2023-07-13T00:20:38;12.85;;;4.35;;
45114;SDS011;30877;43.706;10.780;2023-07-13T00:23:08;13.60;;;4.90;;
45114;SDS011;30877;43.706;10.780;2023-07-13T00:25:37;14.95;;;4.50;;
45114;SDS011;30877;43.706;10.780;2023-07-13T00:28:06;10.35;;;3.97;;
45114;SDS011;30877;43.706;10.780;2023-07-13T00:30:34;10.07;;;3.97;;
45114;SDS011;30877;43.706;10.780;2023-07-13T00:33:02;11.13;;;3.90;;
45114;SDS011;30877;43.706;10.780;2023-07-13T00:35:45;12.60;;;4.22;;
45114;SDS011;30877;43.706;10.780;2023-07-13T00:38:15;10.60;;;4.10;;
45114;SDS011;30877;43.706;10.780;2023-07-13T00:40:43;13.75;;;4.18;;
45114;SDS011;30877;43.706;10.780;2023-07-13T00:43:12;12.25;;;3.50;;
45114;SDS011;30877;43.706;10.780;2023-07-13T00:48:41;12.32;;;4.88;;
45114;SDS011;30877;43.706;10.780;2023-07-13T00:51:16;11.85;;;3.83;;
45114;SDS011;30877;43.706;10.780;2023-07-13T00:53:48;9.02;;;3.95;;
45114;SDS011;30877;43.706;10.780;2023-07-13T00:56:16;12.57;;;4.25;;
45114;SDS011;30877;43.706;10.780;2023-07-13T00:58:45;15.50;;;5.07;;
45114;SDS011;30877;43.706;10.780;2023-07-13T01:01:13;15.15;;;4.97;;
45114;SDS011;30877;43.706;10.780;2023-07-13T01:03:41;12.20;;;4.32;;
45114;SDS011;30877;43.706;10.780;2023-07-13T01:06:10;14.98;;;4.05;;
45114;SDS011;30877;43.706;10.780;2023-07-13T01:08:40;13.13;;;4.85;;
45114;SDS011;30877;43.706;10.780;2023-07-13T01:11:09;12.68;;;4.13;;
45114;SDS011;30877;43.706;10.780;2023-07-13T01:13:37;7.15;;;3.83;;
45114;SDS011;30877;43.706;10.780;2023-07-13T01:16:11;11.18;;;4.15;;
45114;SDS011;30877;43.706;10.780;2023-07-13T01:18:42;10.38;;;4.15;;
45114;SDS011;30877;43.706;10.780;2023-07-13T01:21:12;16.17;;;4.30;;
45114;SDS011;30877;43.706;10.780;2023-07-13T01:23:40;11.43;;;4.03;;
45114;SDS011;30877;43.706;10.780;2023-07-13T01:26:08;12.75;;;3.70;;
45114;SDS011;30877;43.706;10.780;2023-07-13T01:28:37;10.45;;;4.13;;
45114;SDS011;30877;43.706;10.780;2023-07-13T01:31:07;14.55;;;4.68;;
45114;SDS011;30877;43.706;10.780;2023-07-13T01:33:36;12.13;;;4.18;;
45114;SDS011;30877;43.706;10.780;2023-07-13T01:36:06;9.05;;;3.88;;
45114;SDS011;30877;43.706;10.780;2023-07-13T01:38:38;7.70;;;3.83;;
45114;SDS011;30877;43.706;10.780;2023-07-13T01:41:10;15.30;;;4.35;;
45114;SDS011;30877;43.706;10.780;2023-07-13T01:43:38;10.13;;;3.45;;
45114;SDS011;30877;43.706;10.780;2023-07-13T01:46:06;9.90;;;3.40;;
45114;SDS011;30877;43.706;10.780;2023-07-13T01:48:49;16.73;;;4.78;;
45114;SDS011;30877;43.706;10.780;2023-07-13T01:51:18;8.18;;;4.03;;
45114;SDS011;30877;43.706;10.780;2023-07-13T01:53:48;15.32;;;3.83;;
45114;SDS011;30877;43.706;10.780;2023-07-13T01:56:17;9.65;;;4.15;;
45114;SDS011;30877;43.706;10.780;2023-07-13T01:58:45;12.55;;;4.13;;
45114;SDS011;30877;43.706;10.780;2023-07-13T02:01:13;9.48;;;3.35;;
45114;SDS011;30877;43.706;10.780;2023-07-13T02:03:42;9.02;;;3.47;;
45114;SDS011;30877;43.706;10.780;2023-07-13T02:06:10;10.18;;;3.75;;
45114;SDS011;30877;43.706;10.780;2023-07-13T02:08:40;11.98;;;4.40;;
45114;SDS011;30877;43.706;10.780;2023-07-13T02:11:11;10.75;;;4.18;;
45114;SDS011;30877;43.706;10.780;2023-07-13T02:13:40;8.27;;;3.63;;
45114;SDS011;30877;43.706;10.780;2023-07-13T02:16:08;8.00;;;3.42;;
45114;SDS011;30877;43.706;10.780;2023-07-13T02:18:37;10.50;;;3.50;;
45114;SDS011;30877;43.706;10.780;2023-07-13T02:21:05;10.93;;;3.80;;
45114;SDS011;30877;43.706;10.780;2023-07-13T02:23:34;9.20;;;4.18;;
45114;SDS011;30877;43.706;10.780;2023-07-13T02:26:03;10.13;;;3.30;;
45114;SDS011;30877;43.706;10.780;2023-07-13T02:28:33;6.43;;;3.03;;
45114;SDS011;30877;43.706;10.780;2023-07-13T02:31:05;10.40;;;3.90;;
45114;SDS011;30877;43.706;10.780;2023-07-13T02:33:35;8.30;;;3.30;;
45114;SDS011;30877;43.706;10.780;2023-07-13T02:36:04;10.38;;;3.70;;
45114;SDS011;30877;43.706;10.780;2023-07-13T02:38:33;11.07;;;3.75;;
45114;SDS011;30877;43.706;10.780;2023-07-13T02:41:03;10.38;;;3.67;;
45114;SDS011;30877;43.706;10.780;2023-07-13T02:43:33;7.22;;;3.88;;
45114;SDS011;30877;43.706;10.780;2023-07-13T02:46:02;7.85;;;3.53;;
45114;SDS011;30877;43.706;10.780;2023-07-13T02:48:37;8.02;;;3.35;;
45114;SDS011;30877;43.706;10.780;2023-07-13T02:51:06;8.52;;;3.60;;
45114;SDS011;30877;43.706;10.780;2023-07-13T02:53:35;10.55;;;3.63;;
45114;SDS011;30877;43.706;10.780;2023-07-13T02:56:03;11.20;;;3.45;;
45114;SDS011;30877;43.706;10.780;2023-07-13T02:58:33;9.00;;;3.40;;
45114;SDS011;30877;43.706;10.780;2023-07-13T03:01:06;7.68;;;3.30;;
45114;SDS011;30877;43.706;10.780;2023-07-13T03:03:35;6.28;;;3.20;;
45114;SDS011;30877;43.706;10.780;2023-07-13T03:06:04;8.23;;;3.80;;
45114;SDS011;30877;43.706;10.780;2023-07-13T03:08:44;9.13;;;3.53;;
45114;SDS011;30877;43.706;10.780;2023-07-13T03:11:17;12.63;;;3.60;;
45114;SDS011;30877;43.706;10.780;2023-07-13T03:13:57;9.27;;;3.30;;
45114;SDS011;30877;43.706;10.780;2023-07-13T03:16:28;6.25;;;3.33;;
45114;SDS011;30877;43.706;10.780;2023-07-13T03:18:56;6.82;;;3.53;;
45114;SDS011;30877;43.706;10.780;2023-07-13T03:21:25;10.07;;;3.65;;
45114;SDS011;30877;43.706;10.780;2023-07-13T03:23:53;10.02;;;3.25;;
45114;SDS011;30877;43.706;10.780;2023-07-13T03:26:21;5.85;;;3.28;;
45114;SDS011;30877;43.706;10.780;2023-07-13T03:28:49;11.40;;;3.20;;
45114;SDS011;30877;43.706;10.780;2023-07-13T03:31:23;7.65;;;3.05;;
45114;SDS011;30877;43.706;10.780;2023-07-13T03:33:53;9.85;;;3.75;;
45114;SDS011;30877;43.706;10.780;2023-07-13T03:36:21;8.60;;;3.30;;
45114;SDS011;30877;43.706;10.780;2023-07-13T03:38:56;9.00;;;4.28;;
45114;SDS011;30877;43.706;10.780;2023-07-13T03:41:34;13.82;;;6.65;;
45114;SDS011;30877;43.706;10.780;2023-07-13T03:44:02;14.57;;;8.63;;
45114;SDS011;30877;43.706;10.780;2023-07-13T03:49:05;10.45;;;6.22;;
45114;SDS011;30877;43.706;10.780;2023-07-13T03:51:33;8.93;;;5.07;;
45114;SDS011;30877;43.706;10.780;2023-07-13T03:54:01;9.75;;;4.75;;
45114;SDS011;30877;43.706;10.780;2023-07-13T03:56:31;8.82;;;3.83;;
45114;SDS011;30877;43.706;10.780;2023-07-13T03:59:02;7.03;;;3.45;;
45114;SDS011;30877;43.706;10.780;2023-07-13T04:01:30;12.32;;;3.53;;
45114;SDS011;30877;43.706;10.780;2023-07-13T04:04:00;10.02;;;3.53;;
45114;SDS011;30877;43.706;10.780;2023-07-13T04:06:31;8.73;;;3.40;;
45114;SDS011;30877;43.706;10.780;2023-07-13T04:08:59;6.30;;;2.88;;
45114;SDS011;30877;43.706;10.780;2023-07-13T04:11:29;6.32;;;3.08;;
45114;SDS011;30877;43.706;10.780;2023-07-13T04:13:59;8.02;;;3.90;;
45114;SDS011;30877;43.706;10.780;2023-07-13T04:16:28;8.93;;;3.17;;
45114;SDS011;30877;43.706;10.780;2023-07-13T04:18:56;7.15;;;3.00;;
45114;SDS011;30877;43.706;10.780;2023-07-13T04:21:29;4.88;;;2.75;;
45114;SDS011;30877;43.706;10.780;2023-07-13T04:23:59;6.97;;;2.85;;
45114;SDS011;30877;43.706;10.780;2023-07-13T04:26:27;11.65;;;3.22;;
45114;SDS011;30877;43.706;10.780;2023-07-13T04:28:56;8.18;;;3.55;;
45114;SDS011;30877;43.706;10.780;2023-07-13T04:31:24;8.85;;;3.25;;
45114;SDS011;30877;43.706;10.780;2023-07-13T04:33:53;8.73;;;2.85;;
45114;SDS011;30877;43.706;10.780;2023-07-13T04:36:21;7.78;;;2.88;;
45114;SDS011;30877;43.706;10.780;2023-07-13T04:38:51;6.07;;;2.67;;
45114;SDS011;30877;43.706;10.780;2023-07-13T04:41:20;8.30;;;3.30;;
45114;SDS011;30877;43.706;10.780;2023-07-13T04:43:49;9.63;;;3.40;;
45114;SDS011;30877;43.706;10.780;2023-07-13T04:46:17;5.00;;;3.13;;
45114;SDS011;30877;43.706;10.780;2023-07-13T04:48:46;7.80;;;3.08;;
45114;SDS011;30877;43.706;10.780;2023-07-13T04:51:16;6.85;;;2.92;;
45114;SDS011;30877;43.706;10.780;2023-07-13T04:53:44;7.68;;;3.10;;
45114;SDS011;30877;43.706;10.780;2023-07-13T04:56:14;8.68;;;3.72;;
45114;SDS011;30877;43.706;10.780;2023-07-13T04:58:42;9.00;;;3.35;;
45114;SDS011;30877;43.706;10.780;2023-07-13T05:01:10;12.32;;;4.03;;
45114;SDS011;30877;43.706;10.780;2023-07-13T05:03:41;7.75;;;3.30;;
45114;SDS011;30877;43.706;10.780;2023-07-13T05:06:09;7.10;;;3.83;;
45114;SDS011;30877;43.706;10.780;2023-07-13T05:08:37;7.78;;;3.67;;
45114;SDS011;30877;43.706;10.780;2023-07-13T05:11:05;10.38;;;3.67;;
45114;SDS011;30877;43.706;10.780;2023-07-13T05:13:36;9.48;;;3.63;;
45114;SDS011;30877;43.706;10.780;2023-07-13T05:16:04;8.30;;;3.13;;
45114;SDS011;30877;43.706;10.780;2023-07-13T05:18:35;6.53;;;3.30;;
45114;SDS011;30877;43.706;10.780;2023-07-13T05:21:09;9.52;;;3.42;;
45114;SDS011;30877;43.706;10.780;2023-07-13T05:23:38;10.52;;;3.85;;
45114;SDS011;30877;43.706;10.780;2023-07-13T05:26:09;5.85;;;2.70;;
45114;SDS011;30877;43.706;10.780;2023-07-13T05:28:39;8.65;;;2.90;;
45114;SDS011;30877;43.706;10.780;2023-07-13T05:31:07;6.20;;;3.25;;
45114;SDS011;30877;43.706;10.780;2023-07-13T05:33:37;6.53;;;3.15;;
45114;SDS011;30877;43.706;10.780;2023-07-13T05:36:05;9.25;;;3.10;;
45114;SDS011;30877;43.706;10.780;2023-07-13T05:38:34;8.38;;;3.17;;
45114;SDS011;30877;43.706;10.780;2023-07-13T05:41:02;7.13;;;3.53;;
45114;SDS011;30877;43.706;10.780;2023-07-13T05:43:32;4.93;;;3.15;;
45114;SDS011;30877;43.706;10.780;2023-07-13T05:46:02;8.98;;;2.92;;
45114;SDS011;30877;43.706;10.780;2023-07-13T05:48:30;9.80;;;3.70;;
45114;SDS011;30877;43.706;10.780;2023-07-13T05:50:58;9.70;;;3.42;;
45114;SDS011;30877;43.706;10.780;2023-07-13T05:53:27;6.25;;;3.40;;
45114;SDS011;30877;43.706;10.780;2023-07-13T05:55:55;8.25;;;3.13;;
45114;SDS011;30877;43.706;10.780;2023-07-13T05:58:27;8.73;;;3.33;;
45114;SDS011;30877;43.706;10.780;2023-07-13T06:00:59;9.68;;;2.90;;
45114;SDS011;30877;43.706;10.780;2023-07-13T06:03:31;7.90;;;2.97;;
45114;SDS011;30877;43.706;10.780;2023-07-13T06:06:00;6.35;;;3.42;;
45114;SDS011;30877;43.706;10.780;2023-07-13T06:08:28;10.35;;;3.45;;
45114;SDS011;30877;43.706;10.780;2023-07-13T06:11:01;9.73;;;3.72;;
45114;SDS011;30877;43.706;10.780;2023-07-13T06:13:30;8.05;;;2.90;;
45114;SDS011;30877;43.706;10.780;2023-07-13T06:15:58;12.70;;;3.35;;
45114;SDS011;30877;43.706;10.780;2023-07-13T06:18:28;6.95;;;3.38;;
45114;SDS011;30877;43.706;10.780;2023-07-13T06:20:57;9.13;;;3.35;;
45114;SDS011;30877;43.706;10.780;2023-07-13T06:23:25;8.02;;;3.47;;
45114;SDS011;30877;43.706;10.780;2023-07-13T06:25:53;6.90;;;3.47;;
45114;SDS011;30877;43.706;10.780;2023-07-13T06:28:22;11.80;;;3.33;;
45114;SDS011;30877;43.706;10.780;2023-07-13T06:30:50;6.13;;;3.38;;
45114;SDS011;30877;43.706;10.780;2023-07-13T06:33:18;5.40;;;3.08;;
45114;SDS011;30877;43.706;10.780;2023-07-13T06:35:48;7.68;;;3.00;;
45114;SDS011;30877;43.706;10.780;2023-07-13T06:38:16;6.97;;;3.33;;
45114;SDS011;30877;43.706;10.780;2023-07-13T06:40:44;12.38;;;3.97;;
45114;SDS011;30877;43.706;10.780;2023-07-13T06:43:12;10.40;;;3.38;;
45114;SDS011;30877;43.706;10.780;2023-07-13T06:45:41;10.73;;;4.78;;
45114;SDS011;30877;43.706;10.780;2023-07-13T06:48:13;8.95;;;3.45;;
45114;SDS011;30877;43.706;10.780;2023-07-13T06:50:41;9.60;;;4.15;;
45114;SDS011;30877;43.706;10.780;2023-07-13T06:53:11;10.98;;;4.45;;
45114;SDS011;30877;43.706;10.780;2023-07-13T06:55:40;8.18;;;4.50;;
45114;SDS011;30877;43.706;10.780;2023-07-13T06:58:10;11.90;;;4.07;;
45114;SDS011;30877;43.706;10.780;2023-07-13T07:00:38;10.95;;;4.63;;
45114;SDS011;30877;43.706;10.780;2023-07-13T07:03:07;10.98;;;3.85;;
45114;SDS011;30877;43.706;10.780;2023-07-13T07:05:35;8.40;;;4.07;;
45114;SDS011;30877;43.706;10.780;2023-07-13T07:08:03;6.65;;;3.60;;
45114;SDS011;30877;43.706;10.780;2023-07-13T07:10:33;13.80;;;3.67;;
45114;SDS011;30877;43.706;10.780;2023-07-13T07:13:02;5.88;;;3.53;;
45114;SDS011;30877;43.706;10.780;2023-07-13T07:15:31;7.93;;;3.60;;
45114;SDS011;30877;43.706;10.780;2023-07-13T07:17:59;9.68;;;3.55;;
45114;SDS011;30877;43.706;10.780;2023-07-13T07:20:27;6.72;;;3.50;;
45114;SDS011;30877;43.706;10.780;2023-07-13T07:22:57;9.93;;;3.72;;
45114;SDS011;30877;43.706;10.780;2023-07-13T07:25:25;10.77;;;3.80;;
45114;SDS011;30877;43.706;10.780;2023-07-13T07:27:55;8.13;;;3.35;;
45114;SDS011;30877;43.706;10.780;2023-07-13T07:30:26;6.43;;;3.60;;
45114;SDS011;30877;43.706;10.780;2023-07-13T07:32:57;9.48;;;4.35;;
45114;SDS011;30877;43.706;10.780;2023-07-13T07:35:28;10.98;;;3.33;;
45114;SDS011;30877;43.706;10.780;2023-07-13T07:38:02;12.13;;;4.07;;
45114;SDS011;30877;43.706;10.780;2023-07-13T07:40:30;8.00;;;3.78;;
45114;SDS011;30877;43.706;10.780;2023-07-13T07:43:03;10.05;;;3.92;;
45114;SDS011;30877;43.706;10.780;2023-07-13T07:45:31;10.18;;;4.65;;
45114;SDS011;30877;43.706;10.780;2023-07-13T07:47:59;11.18;;;3.88;;
45114;SDS011;30877;43.706;10.780;2023-07-13T07:50:28;12.27;;;4.35;;
45114;SDS011;30877;43.706;10.780;2023-07-13T07:52:56;9.75;;;3.78;;
45114;SDS011;30877;43.706;10.780;2023-07-13T07:55:25;9.35;;;4.32;;
45114;SDS011;30877;43.706;10.780;2023-07-13T07:57:56;8.93;;;3.22;;
45114;SDS011;30877;43.706;10.780;2023-07-13T08:00:29;9.65;;;3.90;;
45114;SDS011;30877;43.706;10.780;2023-07-13T08:03:18;11.07;;;3.78;;
45114;SDS011;30877;43.706;10.780;2023-07-13T08:05:52;10.93;;;4.05;;
45114;SDS011;30877;43.706;10.780;2023-07-13T08:08:23;9.57;;;4.38;;
45114;SDS011;30877;43.706;10.780;2023-07-13T08:10:52;12.93;;;4.90;;
45114;SDS011;30877;43.706;10.780;2023-07-13T08:13:25;10.30;;;4.47;;
45114;SDS011;30877;43.706;10.780;2023-07-13T08:15:54;12.45;;;4.95;;
45114;SDS011;30877;43.706;10.780;2023-07-13T08:18:22;8.23;;;3.65;;
45114;SDS011;30877;43.706;10.780;2023-07-13T08:20:50;9.77;;;3.92;;
45114;SDS011;30877;43.706;10.780;2023-07-13T08:23:19;6.13;;;3.55;;
45114;SDS011;30877;43.706;10.780;2023-07-13T08:25:50;7.95;;;3.83;;
45114;SDS011;30877;43.706;10.780;2023-07-13T08:28:19;9.50;;;4.40;;
45114;SDS011;30877;43.706;10.780;2023-07-13T08:30:47;9.13;;;4.20;;
45114;SDS011;30877;43.706;10.780;2023-07-13T08:33:17;10.10;;;4.30;;
45114;SDS011;30877;43.706;10.780;2023-07-13T08:35:46;9.80;;;3.90;;
45114;SDS011;30877;43.706;10.780;2023-07-13T08:38:14;8.95;;;3.80;;
45114;SDS011;30877;43.706;10.780;2023-07-13T08:40:44;9.90;;;4.13;;
45114;SDS011;30877;43.706;10.780;2023-07-13T08:43:16;10.18;;;3.88;;
45114;SDS011;30877;43.706;10.780;2023-07-13T08:45:48;6.63;;;3.88;;
45114;SDS011;30877;43.706;10.780;2023-07-13T08:48:23;7.93;;;4.57;;
45114;SDS011;30877;43.706;10.780;2023-07-13T08:50:55;6.95;;;4.05;;
45114;SDS011;30877;43.706;10.780;2023-07-13T08:53:30;8.23;;;4.30;;
45114;SDS011;30877;43.706;10.780;2023-07-13T08:56:02;7.72;;;3.92;;
45114;SDS011;30877;43.706;10.780;2023-07-13T08:58:38;9.60;;;4.00;;
45114;SDS011;30877;43.706;10.780;2023-07-13T09:01:10;6.80;;;3.75;;
45114;SDS011;30877;43.706;10.780;2023-07-13T09:03:50;11.38;;;4.15;;
45114;SDS011;30877;43.706;10.780;2023-07-13T09:06:27;6.68;;;3.80;;
45114;SDS011;30877;43.706;10.780;2023-07-13T09:09:02;11.73;;;4.50;;
45114;SDS011;30877;43.706;10.780;2023-07-13T09:11:42;9.77;;;4.03;;
45114;SDS011;30877;43.706;10.780;2023-07-13T09:14:33;11.63;;;4.57;;
45114;SDS011;30877;43.706;10.780;2023-07-13T09:17:10;10.27;;;4.05;;
45114;SDS011;30877;43.706;10.780;2023-07-13T09:19:43;12.68;;;4.88;;
45114;SDS011;30877;43.706;10.780;2023-07-13T09:22:19;13.55;;;4.45;;
45114;SDS011;30877;43.706;10.780;2023-07-13T09:24:53;11.18;;;4.22;;
45114;SDS011;30877;43.706;10.780;2023-07-13T09:27:29;13.05;;;4.88;;
45114;SDS011;30877;43.706;10.780;2023-07-13T09:30:02;8.10;;;4.10;;
45114;SDS011;30877;43.706;10.780;2023-07-13T09:32:47;7.63;;;4.50;;
45114;SDS011;30877;43.706;10.780;2023-07-13T09:35:20;12.73;;;4.43;;
45114;SDS011;30877;43.706;10.780;2023-07-13T09:37:58;9.10;;;3.92;;
45114;SDS011;30877;43.706;10.780;2023-07-13T09:40:32;8.10;;;4.13;;
45114;SDS011;30877;43.706;10.780;2023-07-13T09:43:08;10.20;;;5.00;;
45114;SDS011;30877;43.706;10.780;2023-07-13T09:45:40;12.05;;;4.88;;
45114;SDS011;30877;43.706;10.780;2023-07-13T09:48:13;10.65;;;4.65;;
45114;SDS011;30877;43.706;10.780;2023-07-13T09:50:44;11.98;;;5.18;;
45114;SDS011;30877;43.706;10.780;2023-07-13T09:53:13;15.27;;;4.95;;
45114;SDS011;30877;43.706;10.780;2023-07-13T09:55:43;12.80;;;4.68;;
45114;SDS011;30877;43.706;10.780;2023-07-13T09:58:16;11.35;;;4.68;;
45114;SDS011;30877;43.706;10.780;2023-07-13T10:00:54;11.05;;;4.82;;
45114;SDS011;30877;43.706;10.780;2023-07-13T10:03:25;14.02;;;4.95;;
45114;SDS011;30877;43.706;10.780;2023-07-13T10:05:57;11.02;;;5.28;;
45114;SDS011;30877;43.706;10.780;2023-07-13T10:08:34;16.10;;;5.25;;
45114;SDS011;30877;43.706;10.780;2023-07-13T10:11:09;11.57;;;4.68;;
45114;SDS011;30877;43.706;10.780;2023-07-13T10:13:40;14.45;;;5.50;;
45114;SDS011;30877;43.706;10.780;2023-07-13T10:16:11;11.73;;;5.15;;
45114;SDS011;30877;43.706;10.780;2023-07-13T10:18:42;14.60;;;5.20;;
45114;SDS011;30877;43.706;10.780;2023-07-13T10:21:16;12.48;;;5.18;;
45114;SDS011;30877;43.706;10.780;2023-07-13T10:24:03;18.08;;;5.10;;
45114;SDS011;30877;43.706;10.780;2023-07-13T10:26:37;12.10;;;5.15;;
45114;SDS011;30877;43.706;10.780;2023-07-13T10:29:13;18.17;;;5.50;;
45114;SDS011;30877;43.706;10.780;2023-07-13T10:31:44;12.32;;;4.78;;
45114;SDS011;30877;43.706;10.780;2023-07-13T10:34:13;10.60;;;5.10;;
45114;SDS011;30877;43.706;10.780;2023-07-13T10:36:43;14.07;;;5.22;;
45114;SDS011;30877;43.706;10.780;2023-07-13T10:39:14;13.50;;;5.25;;
45114;SDS011;30877;43.706;10.780;2023-07-13T10:41:44;11.98;;;5.57;;
45114;SDS011;30877;43.706;10.780;2023-07-13T10:44:19;9.95;;;5.85;;
45114;SDS011;30877;43.706;10.780;2023-07-13T10:46:54;8.35;;;4.47;;
45114;SDS011;30877;43.706;10.780;2023-07-13T10:49:24;10.18;;;4.90;;
45114;SDS011;30877;43.706;10.780;2023-07-13T10:51:56;11.85;;;5.28;;
45114;SDS011;30877;43.706;10.780;2023-07-13T10:54:26;11.82;;;5.00;;
45114;SDS011;30877;43.706;10.780;2023-07-13T10:59:46;9.00;;;4.50;;
45114;SDS011;30877;43.706;10.780;2023-07-13T11:02:21;11.52;;;4.82;;
45114;SDS011;30877;43.706;10.780;2023-07-13T11:04:53;7.22;;;4.43;;
45114;SDS011;30877;43.706;10.780;2023-07-13T11:07:26;10.57;;;4.70;;
45114;SDS011;30877;43.706;10.780;2023-07-13T11:09:56;12.05;;;4.35;;
45114;SDS011;30877;43.706;10.780;2023-07-13T11:12:27;7.25;;;3.63;;
45114;SDS011;30877;43.706;10.780;2023-07-13T11:15:26;9.93;;;4.32;;
45114;SDS011;30877;43.706;10.780;2023-07-13T11:17:59;11.75;;;4.78;;
45114;SDS011;30877;43.706;10.780;2023-07-13T11:20:31;7.97;;;4.68;;
45114;SDS011;30877;43.706;10.780;2023-07-13T11:23:20;10.25;;;4.68;;
45114;SDS011;30877;43.706;10.780;2023-07-13T11:25:58;10.20;;;4.75;;
45114;SDS011;30877;43.706;10.780;2023-07-13T11:28:30;7.40;;;4.53;;
45114;SDS011;30877;43.706;10.780;2023-07-13T11:31:03;7.25;;;4.20;;
45114;SDS011;30877;43.706;10.780;2023-07-13T11:33:58;8.35;;;3.92;;
45114;SDS011;30877;43.706;10.780;2023-07-13T11:36:29;8.30;;;4.38;;
45114;SDS011;30877;43.706;10.780;2023-07-13T11:39:05;9.48;;;4.95;;
45114;SDS011;30877;43.706;10.780;2023-07-13T11:41:44;8.90;;;4.65;;
45114;SDS011;30877;43.706;10.780;2023-07-13T11:44:17;11.23;;;4.57;;
45114;SDS011;30877;43.706;10.780;2023-07-13T11:46:47;10.25;;;4.75;;
45114;SDS011;30877;43.706;10.780;2023-07-13T11:49:21;9.10;;;4.68;;
45114;SDS011;30877;43.706;10.780;2023-07-13T11:51:50;7.78;;;4.45;;
45114;SDS011;30877;43.706;10.780;2023-07-13T11:54:25;10.65;;;4.97;;
45114;SDS011;30877;43.706;10.780;2023-07-13T11:56:55;11.07;;;5.40;;
45114;SDS011;30877;43.706;10.780;2023-07-13T11:59:27;7.57;;;4.47;;
45114;SDS011;30877;43.706;10.780;2023-07-13T12:01:58;12.15;;;5.30;;
45114;SDS011;30877;43.706;10.780;2023-07-13T12:04:27;13.70;;;5.30;;
45114;SDS011;30877;43.706;10.780;2023-07-13T12:07:03;13.77;;;5.43;;
45114;SDS011;30877;43.706;10.780;2023-07-13T12:09:34;9.48;;;5.28;;
45114;SDS011;30877;43.706;10.780;2023-07-13T12:12:07;12.77;;;5.30;;
45114;SDS011;30877;43.706;10.780;2023-07-13T12:14:38;15.03;;;5.10;;
45114;SDS011;30877;43.706;10.780;2023-07-13T12:17:16;10.32;;;5.30;;
45114;SDS011;30877;43.706;10.780;2023-07-13T12:19:47;12.50;;;5.20;;
45114;SDS011;30877;43.706;10.780;2023-07-13T12:22:16;17.85;;;6.40;;
45114;SDS011;30877;43.706;10.780;2023-07-13T12:24:47;11.98;;;5.13;;
45114;SDS011;30877;43.706;10.780;2023-07-13T12:27:20;15.95;;;5.80;;
45114;SDS011;30877;43.706;10.780;2023-07-13T12:29:50;16.85;;;5.80;;
45114;SDS011;30877;43.706;10.780;2023-07-13T12:32:20;15.13;;;5.38;;
45114;SDS011;30877;43.706;10.780;2023-07-13T12:34:53;13.07;;;5.75;;
45114;SDS011;30877;43.706;10.780;2023-07-13T12:37:22;17.58;;;6.03;;
45114;SDS011;30877;43.706;10.780;2023-07-13T12:39:53;14.73;;;4.95;;
45114;SDS011;30877;43.706;10.780;2023-07-13T12:42:22;16.95;;;5.80;;
45114;SDS011;30877;43.706;10.780;2023-07-13T12:44:56;19.15;;;6.03;;
45114;SDS011;30877;43.706;10.780;2023-07-13T12:47:27;15.50;;;5.70;;
45114;SDS011;30877;43.706;10.780;2023-07-13T12:49:56;19.70;;;5.95;;
45114;SDS011;30877;43.706;10.780;2023-07-13T12:52:28;17.77;;;5.72;;
45114;SDS011;30877;43.706;10.780;2023-07-13T12:55:05;18.92;;;5.97;;
45114;SDS011;30877;43.706;10.780;2023-07-13T12:57:43;21.73;;;5.95;;
45114;SDS011;30877;43.706;10.780;2023-07-13T13:00:24;24.60;;;6.00;;
45114;SDS011;30877;43.706;10.780;2023-07-13T13:02:56;18.90;;;5.95;;
45114;SDS011;30877;43.706;10.780;2023-07-13T13:05:56;15.90;;;5.45;;
45114;SDS011;30877;43.706;10.780;2023-07-13T13:08:26;19.58;;;5.85;;
45114;SDS011;30877;43.706;10.780;2023-07-13T13:10:56;14.93;;;5.80;;
45114;SDS011;30877;43.706;10.780;2023-07-13T13:13:24;22.33;;;6.68;;
45114;SDS011;30877;43.706;10.780;2023-07-13T13:15:52;17.00;;;5.97;;
45114;SDS011;30877;43.706;10.780;2023-07-13T13:18:21;16.88;;;5.40;;
45114;SDS011;30877;43.706;10.780;2023-07-13T13:20:50;21.02;;;5.90;;
45114;SDS011;30877;43.706;10.780;2023-07-13T13:23:19;14.82;;;5.85;;
45114;SDS011;30877;43.706;10.780;2023-07-13T13:25:49;16.73;;;5.30;;
45114;SDS011;30877;43.706;10.780;2023-07-13T13:28:22;18.83;;;5.82;;
45114;SDS011;30877;43.706;10.780;2023-07-13T13:30:50;17.13;;;6.20;;
45114;SDS011;30877;43.706;10.780;2023-07-13T13:33:20;20.38;;;5.78;;
45114;SDS011;30877;43.706;10.780;2023-07-13T13:35:49;22.63;;;6.10;;
45114;SDS011;30877;43.706;10.780;2023-07-13T13:38:17;16.17;;;5.88;;
45114;SDS011;30877;43.706;10.780;2023-07-13T13:40:54;21.00;;;5.32;;
45114;SDS011;30877;43.706;10.780;2023-07-13T13:43:24;19.15;;;5.88;;
45114;SDS011;30877;43.706;10.780;2023-07-13T13:45:55;16.30;;;5.30;;
45114;SDS011;30877;43.706;10.780;2023-07-13T13:48:29;20.08;;;5.32;;
45114;SDS011;30877;43.706;10.780;2023-07-13T13:50:59;16.38;;;5.47;;
45114;SDS011;30877;43.706;10.780;2023-07-13T13:53:27;19.20;;;5.80;;
45114;SDS011;30877;43.706;10.780;2023-07-13T13:55:55;20.67;;;6.25;;
45114;SDS011;30877;43.706;10.780;2023-07-13T13:58:25;20.60;;;5.70;;
45114;SDS011;30877;43.706;10.780;2023-07-13T14:00:52;18.92;;;6.18;;
45114;SDS011;30877;43.706;10.780;2023-07-13T14:03:20;15.00;;;4.85;;
45114;SDS011;30877;43.706;10.780;2023-07-13T14:05:49;15.70;;;5.47;;
45114;SDS011;30877;43.706;10.780;2023-07-13T14:08:18;16.65;;;5.18;;
45114;SDS011;30877;43.706;10.780;2023-07-13T14:10:48;16.60;;;5.20;;
45114;SDS011;30877;43.706;10.780;2023-07-13T14:13:18;14.88;;;4.93;;
45114;SDS011;30877;43.706;10.780;2023-07-13T14:15:50;17.48;;;5.50;;
45114;SDS011;30877;43.706;10.780;2023-07-13T14:18:19;15.63;;;5.28;;
45114;SDS011;30877;43.706;10.780;2023-07-13T14:20:47;15.20;;;5.10;;
45114;SDS011;30877;43.706;10.780;2023-07-13T14:23:16;18.77;;;5.25;;
45114;SDS011;30877;43.706;10.780;2023-07-13T14:25:45;16.15;;;5.65;;
45114;SDS011;30877;43.706;10.780;2023-07-13T14:28:20;20.70;;;5.95;;
45114;SDS011;30877;43.706;10.780;2023-07-13T14:30:51;18.98;;;5.70;;
45114;SDS011;30877;43.706;10.780;2023-07-13T14:33:21;19.33;;;5.63;;
45114;SDS011;30877;43.706;10.780;2023-07-13T14:35:50;20.27;;;5.30;;
45114;SDS011;30877;43.706;10.780;2023-07-13T14:38:20;16.27;;;5.30;;
45114;SDS011;30877;43.706;10.780;2023-07-13T14:40:48;16.80;;;5.25;;
45114;SDS011;30877;43.706;10.780;2023-07-13T14:43:16;21.67;;;5.85;;
45114;SDS011;30877;43.706;10.780;2023-07-13T14:45:46;15.70;;;5.20;;
45114;SDS011;30877;43.706;10.780;2023-07-13T14:48:18;16.02;;;5.25;;
45114;SDS011;30877;43.706;10.780;2023-07-13T14:50:50;16.52;;;5.53;;
45114;SDS011;30877;43.706;10.780;2023-07-13T14:53:22;21.23;;;6.03;;
45114;SDS011;30877;43.706;10.780;2023-07-13T14:55:52;20.00;;;6.13;;